sensor_id;sensor_type;location;lat;lon;timestamp;pressure;altitude;pressure_sealevel;temperature;humidity
49178;BME280;35016;55.674;37.468;2023-02-01T00:00:37;97699.13;;;1.59;72.81
49178;BME280;35016;55.674;37.468;2023-02-01T00:03:04;97689.50;;;1.58;73.05
49178;BME280;35016;55.674;37.468;2023-02-01T00:05:34;97704.72;;;1.58;72.87
49178;BME280;35016;55.674;37.468;2023-02-01T00:08:01;97695.09;;;1.57;73.18
49178;BME280;35016;55.674;37.468;2023-02-01T00:10:28;97696.16;;;1.55;73.05
49178;BME280;35016;55.674;37.468;2023-02-01T00:12:57;97698.56;;;1.57;73.06
49178;BME280;35016;55.674;37.468;2023-02-01T00:15:23;97703.91;;;1.57;72.87
49178;BME280;35016;55.674;37.468;2023-02-01T00:17:58;97704.97;;;1.56;72.86
49178;BME280;35016;55.674;37.468;2023-02-01T00:20:31;97695.34;;;1.55;73.23
49178;BME280;35016;55.674;37.468;2023-02-01T00:22:58;97700.13;;;1.53;73.00
49178;BME280;35016;55.674;37.468;2023-02-01T00:25:25;97695.84;;;1.52;73.10
49178;BME280;35016;55.674;37.468;2023-02-01T00:27:52;97701.97;;;1.52;73.15
49178;BME280;35016;55.674;37.468;2023-02-01T00:30:19;97688.63;;;1.52;73.17
49178;BME280;35016;55.674;37.468;2023-02-01T00:32:46;97700.13;;;1.53;72.87
49178;BME280;35016;55.674;37.468;2023-02-01T00:35:13;97688.38;;;1.54;72.79
49178;BME280;35016;55.674;37.468;2023-02-01T00:37:40;97696.16;;;1.55;73.26
49178;BME280;35016;55.674;37.468;2023-02-01T00:40:07;97696.72;;;1.58;72.81
49178;BME280;35016;55.674;37.468;2023-02-01T00:42:34;97697.28;;;1.60;73.05
49178;BME280;35016;55.674;37.468;2023-02-01T00:45:01;97695.41;;;1.60;73.26
49178;BME280;35016;55.674;37.468;2023-02-01T00:47:28;97697.56;;;1.63;72.86
49178;BME280;35016;55.674;37.468;2023-02-01T00:50:00;97688.50;;;1.64;72.89
49178;BME280;35016;55.674;37.468;2023-02-01T00:52:28;97695.22;;;1.67;73.23
49178;BME280;35016;55.674;37.468;2023-02-01T00:54:55;97694.16;;;1.68;72.85
49178;BME280;35016;55.674;37.468;2023-02-01T00:57:22;97694.72;;;1.70;72.93
49178;BME280;35016;55.674;37.468;2023-02-01T00:59:49;97696.34;;;1.71;72.96
49178;BME280;35016;55.674;37.468;2023-02-01T01:02:16;97694.22;;;1.73;73.20
49178;BME280;35016;55.674;37.468;2023-02-01T01:04:42;97705.16;;;1.71;73.16
49178;BME280;35016;55.674;37.468;2023-02-01T01:07:09;97698.19;;;1.70;72.91
49178;BME280;35016;55.674;37.468;2023-02-01T01:09:36;97696.59;;;1.69;73.30
49178;BME280;35016;55.674;37.468;2023-02-01T01:12:03;97700.31;;;1.68;72.88
49178;BME280;35016;55.674;37.468;2023-02-01T01:14:30;97696.53;;;1.64;73.17
49178;BME280;35016;55.674;37.468;2023-02-01T01:17:03;97702.13;;;1.63;73.08
49178;BME280;35016;55.674;37.468;2023-02-01T01:19:29;97701.31;;;1.62;73.19
49178;BME280;35016;55.674;37.468;2023-02-01T01:21:56;97700.25;;;1.63;73.18
49178;BME280;35016;55.674;37.468;2023-02-01T01:24:23;97703.72;;;1.64;73.45
49178;BME280;35016;55.674;37.468;2023-02-01T01:26:50;97701.63;;;1.66;73.22
49178;BME280;35016;55.674;37.468;2023-02-01T01:29:17;97710.69;;;1.65;73.44
49178;BME280;35016;55.674;37.468;2023-02-01T01:31:44;97710.94;;;1.63;73.08
49178;BME280;35016;55.674;37.468;2023-02-01T01:34:11;97712.56;;;1.64;73.09
49178;BME280;35016;55.674;37.468;2023-02-01T01:36:38;97704.53;;;1.64;73.06
49178;BME280;35016;55.674;37.468;2023-02-01T01:39:04;97712.00;;;1.62;73.39
49178;BME280;35016;55.674;37.468;2023-02-01T01:41:31;97710.13;;;1.63;73.28
49178;BME280;35016;55.674;37.468;2023-02-01T01:47:02;97720.56;;;1.64;73.25
49178;BME280;35016;55.674;37.468;2023-02-01T01:49:29;97715.22;;;1.64;73.74
49178;BME280;35016;55.674;37.468;2023-02-01T01:51:57;97716.84;;;1.65;73.36
49178;BME280;35016;55.674;37.468;2023-02-01T01:54:27;97713.91;;;1.67;73.39
49178;BME280;35016;55.674;37.468;2023-02-01T01:57:11;97720.38;;;1.71;73.44
49178;BME280;35016;55.674;37.468;2023-02-01T01:59:38;97723.06;;;1.71;73.54
49178;BME280;35016;55.674;37.468;2023-02-01T02:02:07;97721.19;;;1.71;73.21
49178;BME280;35016;55.674;37.468;2023-02-01T02:04:34;97717.47;;;1.72;73.42
49178;BME280;35016;55.674;37.468;2023-02-01T02:07:07;97724.69;;;1.72;73.08
49178;BME280;35016;55.674;37.468;2023-02-01T02:09:36;97721.19;;;1.71;73.06
49178;BME280;35016;55.674;37.468;2023-02-01T02:12:05;97715.84;;;1.71;73.34
49178;BME280;35016;55.674;37.468;2023-02-01T02:14:31;97719.31;;;1.72;73.41
49178;BME280;35016;55.674;37.468;2023-02-01T02:23:02;97720.13;;;1.72;72.94
49178;BME280;35016;55.674;37.468;2023-02-01T02:50:00;97737.97;;;1.67;73.09
49178;BME280;35016;55.674;37.468;2023-02-01T02:52:54;97730.75;;;1.67;73.20
49178;BME280;35016;55.674;37.468;2023-02-01T02:55:43;97733.44;;;1.67;73.04
49178;BME280;35016;55.674;37.468;2023-02-01T02:58:10;97735.28;;;1.67;72.84
49178;BME280;35016;55.674;37.468;2023-02-01T03:00:56;97732.06;;;1.65;73.32
49178;BME280;35016;55.674;37.468;2023-02-01T03:03:42;97738.47;;;1.64;73.02
49178;BME280;35016;55.674;37.468;2023-02-01T03:06:37;97738.94;;;1.61;73.10
49178;BME280;35016;55.674;37.468;2023-02-01T03:09:07;97728.75;;;1.58;72.98
49178;BME280;35016;55.674;37.468;2023-02-01T03:11:37;97735.97;;;1.57;72.91
49178;BME280;35016;55.674;37.468;2023-02-01T03:14:24;97726.91;;;1.58;73.27
49178;BME280;35016;55.674;37.468;2023-02-01T03:16:54;97733.59;;;1.61;73.05
49178;BME280;35016;55.674;37.468;2023-02-01T03:19:31;97732.81;;;1.60;73.32
49178;BME280;35016;55.674;37.468;2023-02-01T03:22:10;97734.09;;;1.58;73.03
49178;BME280;35016;55.674;37.468;2023-02-01T03:24:43;97730.63;;;1.57;73.40
49178;BME280;35016;55.674;37.468;2023-02-01T03:29:45;97733.28;;;1.57;73.33
49178;BME280;35016;55.674;37.468;2023-02-01T03:32:14;97739.75;;;1.61;73.16
49178;BME280;35016;55.674;37.468;2023-02-01T03:34:41;97731.25;;;1.64;73.21
49178;BME280;35016;55.674;37.468;2023-02-01T03:37:10;97744.94;;;1.68;73.03
49178;BME280;35016;55.674;37.468;2023-02-01T03:39:44;97742.25;;;1.68;73.32
49178;BME280;35016;55.674;37.468;2023-02-01T03:42:17;97741.44;;;1.67;73.41
49178;BME280;35016;55.674;37.468;2023-02-01T03:47:30;97751.63;;;1.70;73.38
49178;BME280;35016;55.674;37.468;2023-02-01T03:50:02;97752.44;;;1.71;73.26
49178;BME280;35016;55.674;37.468;2023-02-01T03:52:41;97751.41;;;1.72;73.21
49178;BME280;35016;55.674;37.468;2023-02-01T03:55:13;97757.78;;;1.71;72.71
49178;BME280;35016;55.674;37.468;2023-02-01T03:57:43;97762.31;;;1.70;73.34
49178;BME280;35016;55.674;37.468;2023-02-01T04:00:15;97768.22;;;1.72;72.90
49178;BME280;35016;55.674;37.468;2023-02-01T04:02:43;97771.50;;;1.74;73.10
49178;BME280;35016;55.674;37.468;2023-02-01T04:05:11;97769.63;;;1.75;73.05
49178;BME280;35016;55.674;37.468;2023-02-01T04:07:45;97777.06;;;1.73;72.86
49178;BME280;35016;55.674;37.468;2023-02-01T04:10:12;97776.50;;;1.71;73.24
49178;BME280;35016;55.674;37.468;2023-02-01T04:12:39;97778.34;;;1.70;73.30
49178;BME280;35016;55.674;37.468;2023-02-01T04:15:06;97781.03;;;1.70;73.32
49178;BME280;35016;55.674;37.468;2023-02-01T04:17:34;97783.69;;;1.70;73.08
49178;BME280;35016;55.674;37.468;2023-02-01T04:20:00;97779.16;;;1.71;73.38
49178;BME280;35016;55.674;37.468;2023-02-01T04:22:29;97783.81;;;1.75;73.28
49178;BME280;35016;55.674;37.468;2023-02-01T04:24:58;97779.81;;;1.78;73.18
49178;BME280;35016;55.674;37.468;2023-02-01T04:27:25;97793.50;;;1.81;73.48
49178;BME280;35016;55.674;37.468;2023-02-01T04:29:52;97790.03;;;1.81;73.50
49178;BME280;35016;55.674;37.468;2023-02-01T04:32:24;97784.75;;;1.86;73.30
49178;BME280;35016;55.674;37.468;2023-02-01T04:34:51;97789.03;;;1.87;73.42
49178;BME280;35016;55.674;37.468;2023-02-01T04:37:19;97794.38;;;1.87;73.42
49178;BME280;35016;55.674;37.468;2023-02-01T04:39:48;97796.00;;;1.88;73.31
49178;BME280;35016;55.674;37.468;2023-02-01T04:42:14;97799.47;;;1.89;73.13
49178;BME280;35016;55.674;37.468;2023-02-01T04:44:41;97802.16;;;1.89;73.35
49178;BME280;35016;55.674;37.468;2023-02-01T04:47:08;97801.59;;;1.86;73.17
49178;BME280;35016;55.674;37.468;2023-02-01T04:49:38;97801.84;;;1.85;73.26
49178;BME280;35016;55.674;37.468;2023-02-01T04:52:05;97807.44;;;1.83;73.25
49178;BME280;35016;55.674;37.468;2023-02-01T04:54:34;97813.25;;;1.80;73.25
49178;BME280;35016;55.674;37.468;2023-02-01T04:57:06;97811.09;;;1.77;73.33
49178;BME280;35016;55.674;37.468;2023-02-01T04:59:48;97815.88;;;1.75;73.41
49178;BME280;35016;55.674;37.468;2023-02-01T05:02:19;97813.44;;;1.74;73.40
49178;BME280;35016;55.674;37.468;2023-02-01T05:04:46;97817.94;;;1.73;73.46
49178;BME280;35016;55.674;37.468;2023-02-01T05:07:13;97817.72;;;1.75;73.22
49178;BME280;35016;55.674;37.468;2023-02-01T05:09:40;97821.22;;;1.75;73.23
49178;BME280;35016;55.674;37.468;2023-02-01T05:12:08;97819.91;;;1.78;73.21
49178;BME280;35016;55.674;37.468;2023-02-01T05:14:55;97825.00;;;1.79;73.21
49178;BME280;35016;55.674;37.468;2023-02-01T05:17:21;97829.28;;;1.80;73.41
49178;BME280;35016;55.674;37.468;2023-02-01T05:19:49;97829.06;;;1.82;73.39
49178;BME280;35016;55.674;37.468;2023-02-01T05:22:16;97826.94;;;1.84;73.42
49178;BME280;35016;55.674;37.468;2023-02-01T05:24:43;97821.59;;;1.84;73.09
49178;BME280;35016;55.674;37.468;2023-02-01T05:27:10;97825.06;;;1.84;73.46
49178;BME280;35016;55.674;37.468;2023-02-01T05:29:37;97828.56;;;1.85;73.27
49178;BME280;35016;55.674;37.468;2023-02-01T05:32:04;97823.47;;;1.83;73.18
49178;BME280;35016;55.674;37.468;2023-02-01T05:34:47;97831.72;;;1.82;73.47
49178;BME280;35016;55.674;37.468;2023-02-01T05:37:14;97831.97;;;1.80;73.32
49178;BME280;35016;55.674;37.468;2023-02-01T05:39:41;97835.69;;;1.79;73.16
49178;BME280;35016;55.674;37.468;2023-02-01T05:42:08;97834.31;;;1.77;73.25
49178;BME280;35016;55.674;37.468;2023-02-01T05:44:35;97838.28;;;1.74;73.21
49178;BME280;35016;55.674;37.468;2023-02-01T05:47:02;97839.31;;;1.73;73.20
49178;BME280;35016;55.674;37.468;2023-02-01T05:49:29;97835.63;;;1.74;73.05
49178;BME280;35016;55.674;37.468;2023-02-01T05:51:56;97835.13;;;1.77;73.04
49178;BME280;35016;55.674;37.468;2023-02-01T05:54:25;97843.97;;;1.78;73.46
49178;BME280;35016;55.674;37.468;2023-02-01T05:56:53;97837.81;;;1.77;73.53
49178;BME280;35016;55.674;37.468;2023-02-01T05:59:20;97847.44;;;1.78;73.49
49178;BME280;35016;55.674;37.468;2023-02-01T06:01:47;97846.63;;;1.78;73.43
49178;BME280;35016;55.674;37.468;2023-02-01T06:04:14;97837.31;;;1.80;73.10
49178;BME280;35016;55.674;37.468;2023-02-01T06:06:42;97848.31;;;1.84;73.53
49178;BME280;35016;55.674;37.468;2023-02-01T06:09:14;97846.47;;;1.84;73.17
49178;BME280;35016;55.674;37.468;2023-02-01T06:11:41;97854.22;;;1.86;73.09
49178;BME280;35016;55.674;37.468;2023-02-01T06:14:10;97857.97;;;1.85;73.42
49178;BME280;35016;55.674;37.468;2023-02-01T06:16:37;97856.34;;;1.84;73.42
49178;BME280;35016;55.674;37.468;2023-02-01T06:19:08;97857.16;;;1.84;73.45
49178;BME280;35016;55.674;37.468;2023-02-01T06:21:38;97860.13;;;1.88;73.60
49178;BME280;35016;55.674;37.468;2023-02-01T06:24:05;97855.13;;;1.92;73.36
49178;BME280;35016;55.674;37.468;2023-02-01T06:26:32;97862.06;;;1.93;73.50
49178;BME280;35016;55.674;37.468;2023-02-01T06:29:00;97861.03;;;1.94;73.47
49178;BME280;35016;55.674;37.468;2023-02-01T06:31:27;97861.59;;;1.96;73.05
49178;BME280;35016;55.674;37.468;2023-02-01T06:33:54;97867.19;;;1.94;73.33
49178;BME280;35016;55.674;37.468;2023-02-01T06:36:22;97865.00;;;1.91;73.41
49178;BME280;35016;55.674;37.468;2023-02-01T06:38:49;97855.59;;;1.89;73.04
49178;BME280;35016;55.674;37.468;2023-02-01T06:41:16;97862.81;;;1.88;72.92
49178;BME280;35016;55.674;37.468;2023-02-01T06:43:46;97870.81;;;1.88;73.46
49178;BME280;35016;55.674;37.468;2023-02-01T06:46:15;97859.09;;;1.89;73.09
49178;BME280;35016;55.674;37.468;2023-02-01T06:48:42;97864.19;;;1.91;73.35
49178;BME280;35016;55.674;37.468;2023-02-01T06:51:21;97875.44;;;1.93;73.39
49178;BME280;35016;55.674;37.468;2023-02-01T06:53:49;97868.22;;;1.93;73.15
49178;BME280;35016;55.674;37.468;2023-02-01T06:56:16;97867.19;;;1.94;73.39
49178;BME280;35016;55.674;37.468;2023-02-01T06:58:43;97871.72;;;1.94;73.06
49178;BME280;35016;55.674;37.468;2023-02-01T07:01:10;97872.28;;;1.96;73.33
49178;BME280;35016;55.674;37.468;2023-02-01T07:03:38;97870.41;;;1.96;73.40
49178;BME280;35016;55.674;37.468;2023-02-01T07:06:05;97883.53;;;1.98;73.14
49178;BME280;35016;55.674;37.468;2023-02-01T07:08:33;97885.97;;;1.99;73.32
49178;BME280;35016;55.674;37.468;2023-02-01T07:11:01;97888.38;;;2.01;73.43
49178;BME280;35016;55.674;37.468;2023-02-01T07:13:28;97884.66;;;2.02;73.48
49178;BME280;35016;55.674;37.468;2023-02-01T07:15:57;97885.25;;;2.04;73.41
49178;BME280;35016;55.674;37.468;2023-02-01T07:18:24;97885.25;;;2.04;72.95
49178;BME280;35016;55.674;37.468;2023-02-01T07:20:51;97887.94;;;2.04;73.37
49178;BME280;35016;55.674;37.468;2023-02-01T07:23:18;97890.00;;;2.02;72.99
49178;BME280;35016;55.674;37.468;2023-02-01T07:25:45;97884.44;;;2.03;73.58
49178;BME280;35016;55.674;37.468;2023-02-01T07:28:13;97894.66;;;2.06;73.15
49178;BME280;35016;55.674;37.468;2023-02-01T07:30:40;97889.06;;;2.08;73.14
49178;BME280;35016;55.674;37.468;2023-02-01T07:33:07;97894.16;;;2.09;72.90
49178;BME280;35016;55.674;37.468;2023-02-01T07:35:34;97899.00;;;2.12;73.16
49178;BME280;35016;55.674;37.468;2023-02-01T07:38:00;97888.56;;;2.11;72.85
49178;BME280;35016;55.674;37.468;2023-02-01T07:40:28;97898.19;;;2.12;73.30
49178;BME280;35016;55.674;37.468;2023-02-01T07:42:57;97901.44;;;2.14;73.40
49178;BME280;35016;55.674;37.468;2023-02-01T07:45:25;97898.28;;;2.17;73.13
49178;BME280;35016;55.674;37.468;2023-02-01T07:47:52;97900.38;;;2.15;73.30
49178;BME280;35016;55.674;37.468;2023-02-01T07:50:19;97897.72;;;2.15;72.88
49178;BME280;35016;55.674;37.468;2023-02-01T07:52:47;97899.91;;;2.18;73.06
49178;BME280;35016;55.674;37.468;2023-02-01T07:55:14;97898.34;;;2.22;73.22
49178;BME280;35016;55.674;37.468;2023-02-01T07:57:41;97903.19;;;2.25;72.97
49178;BME280;35016;55.674;37.468;2023-02-01T08:00:08;97901.91;;;2.28;73.13
49178;BME280;35016;55.674;37.468;2023-02-01T08:02:54;97889.34;;;2.28;72.82
49178;BME280;35016;55.674;37.468;2023-02-01T08:05:24;97897.13;;;2.30;73.14
49178;BME280;35016;55.674;37.468;2023-02-01T08:07:51;97896.41;;;2.34;73.13
49178;BME280;35016;55.674;37.468;2023-02-01T08:10:21;97899.63;;;2.36;73.01
49178;BME280;35016;55.674;37.468;2023-02-01T08:12:49;97884.16;;;2.38;73.29
49178;BME280;35016;55.674;37.468;2023-02-01T08:15:22;97885.53;;;2.41;73.23
49178;BME280;35016;55.674;37.468;2023-02-01T08:17:50;97886.81;;;2.38;72.87
49178;BME280;35016;55.674;37.468;2023-02-01T08:20:17;97894.28;;;2.36;73.15
49178;BME280;35016;55.674;37.468;2023-02-01T08:22:45;97890.56;;;2.37;73.09
49178;BME280;35016;55.674;37.468;2023-02-01T08:25:11;97890.56;;;2.37;73.08
49178;BME280;35016;55.674;37.468;2023-02-01T08:27:38;97882.53;;;2.37;73.14
49178;BME280;35016;55.674;37.468;2023-02-01T08:30:06;97882.28;;;2.39;73.15
49178;BME280;35016;55.674;37.468;2023-02-01T08:32:33;97886.88;;;2.43;73.29
49178;BME280;35016;55.674;37.468;2023-02-01T08:35:01;97887.28;;;2.52;73.24
49178;BME280;35016;55.674;37.468;2023-02-01T08:37:28;97890.34;;;2.61;73.03
49178;BME280;35016;55.674;37.468;2023-02-01T08:39:55;97892.59;;;2.69;73.24
49178;BME280;35016;55.674;37.468;2023-02-01T08:42:22;97885.44;;;2.74;73.15
49178;BME280;35016;55.674;37.468;2023-02-01T08:45:07;97884.44;;;2.80;73.04
49178;BME280;35016;55.674;37.468;2023-02-01T08:47:34;97882.31;;;2.83;72.97
49178;BME280;35016;55.674;37.468;2023-02-01T08:50:01;97892.47;;;2.80;73.12
49178;BME280;35016;55.674;37.468;2023-02-01T08:52:28;97884.63;;;2.74;72.94
49178;BME280;35016;55.674;37.468;2023-02-01T08:54:56;97885.94;;;2.71;72.93
49178;BME280;35016;55.674;37.468;2023-02-01T08:57:22;97878.47;;;2.73;73.16
49178;BME280;35016;55.674;37.468;2023-02-01T08:59:50;97884.38;;;2.75;73.45
49178;BME280;35016;55.674;37.468;2023-02-01T09:02:17;97883.88;;;2.78;73.03
49178;BME280;35016;55.674;37.468;2023-02-01T09:04:44;97889.53;;;2.82;73.07
49178;BME280;35016;55.674;37.468;2023-02-01T09:07:11;97884.19;;;2.82;73.14
49178;BME280;35016;55.674;37.468;2023-02-01T09:09:39;97878.56;;;2.84;73.18
49178;BME280;35016;55.674;37.468;2023-02-01T09:12:06;97873.28;;;2.89;72.88
49178;BME280;35016;55.674;37.468;2023-02-01T09:14:33;97876.28;;;2.92;72.92
49178;BME280;35016;55.674;37.468;2023-02-01T09:17:00;97873.91;;;2.96;72.83
49178;BME280;35016;55.674;37.468;2023-02-01T09:19:27;97870.19;;;2.97;72.87
49178;BME280;35016;55.674;37.468;2023-02-01T09:21:54;97874.22;;;2.99;73.04
49178;BME280;35016;55.674;37.468;2023-02-01T09:24:21;97870.53;;;3.05;73.02
49178;BME280;35016;55.674;37.468;2023-02-01T09:26:48;97874.06;;;3.11;72.98
49178;BME280;35016;55.674;37.468;2023-02-01T09:29:15;97876.81;;;3.16;72.93
49178;BME280;35016;55.674;37.468;2023-02-01T09:31:42;97876.81;;;3.16;72.95
49178;BME280;35016;55.674;37.468;2023-02-01T09:34:31;97867.41;;;3.14;72.73
49178;BME280;35016;55.674;37.468;2023-02-01T09:36:58;97876.19;;;3.09;72.70
49178;BME280;35016;55.674;37.468;2023-02-01T09:39:25;97861.13;;;3.03;72.88
49178;BME280;35016;55.674;37.468;2023-02-01T09:47:13;97866.75;;;2.79;73.00
49178;BME280;35016;55.674;37.468;2023-02-01T09:49:53;97854.44;;;2.78;72.89
49178;BME280;35016;55.674;37.468;2023-02-01T09:52:40;97861.09;;;2.76;72.96
49178;BME280;35016;55.674;37.468;2023-02-01T09:55:26;97856.25;;;2.73;72.73
49178;BME280;35016;55.674;37.468;2023-02-01T10:00:50;97864.81;;;2.75;72.88
49178;BME280;35016;55.674;37.468;2023-02-01T10:03:20;97864.53;;;2.71;72.95
49178;BME280;35016;55.674;37.468;2023-02-01T10:08:46;97862.41;;;2.73;72.83
49178;BME280;35016;55.674;37.468;2023-02-01T10:11:22;97860.28;;;2.75;72.92
49178;BME280;35016;55.674;37.468;2023-02-01T10:14:07;97866.69;;;2.74;72.97
49178;BME280;35016;55.674;37.468;2023-02-01T10:16:40;97858.41;;;2.76;72.93
49178;BME280;35016;55.674;37.468;2023-02-01T10:21:59;97860.84;;;2.77;72.69
49178;BME280;35016;55.674;37.468;2023-02-01T10:27:19;97859.97;;;2.72;72.92
49178;BME280;35016;55.674;37.468;2023-02-01T10:29:49;97858.06;;;2.67;72.91
49178;BME280;35016;55.674;37.468;2023-02-01T10:32:21;97862.28;;;2.63;72.95
49178;BME280;35016;55.674;37.468;2023-02-01T10:34:55;97853.34;;;2.58;72.84
49178;BME280;35016;55.674;37.468;2023-02-01T10:37:26;97851.44;;;2.53;72.97
49178;BME280;35016;55.674;37.468;2023-02-01T10:39:55;97853.28;;;2.53;72.94
49178;BME280;35016;55.674;37.468;2023-02-01T10:42:25;97846.63;;;2.55;72.99
49178;BME280;35016;55.674;37.468;2023-02-01T10:44:56;97854.25;;;2.63;72.99
49178;BME280;35016;55.674;37.468;2023-02-01T10:47:25;97858.91;;;2.73;73.28
49178;BME280;35016;55.674;37.468;2023-02-01T10:52:54;97861.63;;;3.00;72.90
49178;BME280;35016;55.674;37.468;2023-02-01T10:55:37;97861.44;;;3.06;72.74
49178;BME280;35016;55.674;37.468;2023-02-01T10:58:12;97861.75;;;3.10;72.61
49178;BME280;35016;55.674;37.468;2023-02-01T11:03:21;97857.19;;;3.10;72.77
49178;BME280;35016;55.674;37.468;2023-02-01T11:05:52;97855.78;;;3.03;72.57
49178;BME280;35016;55.674;37.468;2023-02-01T11:08:19;97861.63;;;3.00;72.71
49178;BME280;35016;55.674;37.468;2023-02-01T11:10:46;97856.03;;;3.01;72.79
49178;BME280;35016;55.674;37.468;2023-02-01T11:13:15;97853.59;;;3.00;72.80
49178;BME280;35016;55.674;37.468;2023-02-01T11:15:43;97853.09;;;3.03;72.94
49178;BME280;35016;55.674;37.468;2023-02-01T11:18:18;97854.22;;;3.07;72.90
49178;BME280;35016;55.674;37.468;2023-02-01T11:20:46;97851.78;;;3.05;72.91
49178;BME280;35016;55.674;37.468;2023-02-01T11:23:17;97861.13;;;3.03;72.78
49178;BME280;35016;55.674;37.468;2023-02-01T11:25:55;97862.69;;;2.99;72.96
49178;BME280;35016;55.674;37.468;2023-02-01T11:28:24;97853.25;;;2.91;72.84
49178;BME280;35016;55.674;37.468;2023-02-01T11:30:53;97861.44;;;2.85;73.03
49178;BME280;35016;55.674;37.468;2023-02-01T11:33:24;97856.50;;;2.71;72.93
49178;BME280;35016;55.674;37.468;2023-02-01T11:35:59;97851.31;;;2.65;73.19
49178;BME280;35016;55.674;37.468;2023-02-01T11:38:30;97860.66;;;2.62;73.14
49178;BME280;35016;55.674;37.468;2023-02-01T11:43:57;97864.72;;;2.65;73.33
49178;BME280;35016;55.674;37.468;2023-02-01T11:46:32;97860.16;;;2.65;73.11
49178;BME280;35016;55.674;37.468;2023-02-01T11:52:03;97880.28;;;2.68;73.03
49178;BME280;35016;55.674;37.468;2023-02-01T12:07:42;97874.50;;;2.37;73.08
49178;BME280;35016;55.674;37.468;2023-02-01T12:10:32;97880.34;;;2.34;73.13
49178;BME280;35016;55.674;37.468;2023-02-01T12:19:11;97878.25;;;2.36;73.19
49178;BME280;35016;55.674;37.468;2023-02-01T12:32:24;97888.50;;;2.44;73.12
49178;BME280;35016;55.674;37.468;2023-02-01T12:37:42;97887.94;;;2.42;73.03
49178;BME280;35016;55.674;37.468;2023-02-01T12:43:15;97895.41;;;2.40;73.31
49178;BME280;35016;55.674;37.468;2023-02-01T12:46:14;97890.56;;;2.37;73.23
49178;BME280;35016;55.674;37.468;2023-02-01T12:49:11;97883.28;;;2.33;73.27
49178;BME280;35016;55.674;37.468;2023-02-01T12:58:58;97900.03;;;2.28;73.35
49178;BME280;35016;55.674;37.468;2023-02-01T13:01:37;97896.31;;;2.29;73.28
49178;BME280;35016;55.674;37.468;2023-02-01T13:04:10;97899.53;;;2.31;73.38
49178;BME280;35016;55.674;37.468;2023-02-01T13:13:14;97895.59;;;2.34;73.23
49178;BME280;35016;55.674;37.468;2023-02-01T13:15:44;97903.38;;;2.35;73.24
49178;BME280;35016;55.674;37.468;2023-02-01T13:18:19;97893.47;;;2.36;73.05
49178;BME280;35016;55.674;37.468;2023-02-01T13:20:49;97898.81;;;2.36;73.35
49178;BME280;35016;55.674;37.468;2023-02-01T13:23:25;97899.53;;;2.31;73.32
49178;BME280;35016;55.674;37.468;2023-02-01T13:25:54;97892.25;;;2.27;73.24
49178;BME280;35016;55.674;37.468;2023-02-01T13:28:40;97890.81;;;2.19;73.16
49178;BME280;35016;55.674;37.468;2023-02-01T13:42:04;97897.63;;;1.93;73.05
49178;BME280;35016;55.674;37.468;2023-02-01T13:44:41;97894.16;;;1.93;73.46
49178;BME280;35016;55.674;37.468;2023-02-01T13:47:13;97906.69;;;1.92;73.50
49178;BME280;35016;55.674;37.468;2023-02-01T13:49:44;97904.84;;;1.93;73.26
49178;BME280;35016;55.674;37.468;2023-02-01T13:52:26;97912.84;;;1.93;73.38
49178;BME280;35016;55.674;37.468;2023-02-01T13:55:03;97904.03;;;1.92;73.23
49178;BME280;35016;55.674;37.468;2023-02-01T13:57:41;97901.94;;;1.94;73.47
49178;BME280;35016;55.674;37.468;2023-02-01T14:00:25;97902.72;;;1.95;73.11
49178;BME280;35016;55.674;37.468;2023-02-01T14:11:44;97896.50;;;1.89;73.31
49178;BME280;35016;55.674;37.468;2023-02-01T14:19:39;97907.03;;;1.79;73.36
49178;BME280;35016;55.674;37.468;2023-02-01T14:25:14;97896.84;;;1.76;73.13
49178;BME280;35016;55.674;37.468;2023-02-01T14:27:45;97908.56;;;1.75;72.88
49178;BME280;35016;55.674;37.468;2023-02-01T14:30:14;97912.31;;;1.74;72.97
49178;BME280;35016;55.674;37.468;2023-02-01T14:32:45;97914.13;;;1.73;72.80
49178;BME280;35016;55.674;37.468;2023-02-01T14:35:40;97917.03;;;1.72;73.18
49178;BME280;35016;55.674;37.468;2023-02-01T14:38:08;97919.97;;;1.70;72.75
49178;BME280;35016;55.674;37.468;2023-02-01T14:40:41;97922.88;;;1.69;73.18
49178;BME280;35016;55.674;37.468;2023-02-01T14:43:09;97916.97;;;1.67;72.82
49178;BME280;35016;55.674;37.468;2023-02-01T14:46:03;97928.13;;;1.64;72.97
49178;BME280;35016;55.674;37.468;2023-02-01T14:59:29;97922.38;;;1.55;72.82
49178;BME280;35016;55.674;37.468;2023-02-01T15:02:13;97938.66;;;1.53;72.78
49178;BME280;35016;55.674;37.468;2023-02-01T15:04:44;97928.22;;;1.52;73.15
49178;BME280;35016;55.674;37.468;2023-02-01T15:07:15;97932.16;;;1.49;72.97
49178;BME280;35016;55.674;37.468;2023-02-01T15:09:44;97926.81;;;1.49;72.80
49178;BME280;35016;55.674;37.468;2023-02-01T15:12:16;97932.75;;;1.51;73.04
49178;BME280;35016;55.674;37.468;2023-02-01T15:17:57;97943.41;;;1.51;72.72
49178;BME280;35016;55.674;37.468;2023-02-01T15:20:28;97943.19;;;1.53;72.67
49178;BME280;35016;55.674;37.468;2023-02-01T15:25:32;97944.38;;;1.45;72.96
49178;BME280;35016;55.674;37.468;2023-02-01T15:28:17;97939.50;;;1.42;72.96
49178;BME280;35016;55.674;37.468;2023-02-01T15:34:48;97941.13;;;1.43;73.03
49178;BME280;35016;55.674;37.468;2023-02-01T15:41:39;97948.31;;;1.43;72.80
49178;BME280;35016;55.674;37.468;2023-02-01T15:46:56;97952.16;;;1.47;72.57
49178;BME280;35016;55.674;37.468;2023-02-01T15:49:37;97955.41;;;1.49;72.55
49178;BME280;35016;55.674;37.468;2023-02-01T15:52:12;97963.41;;;1.49;72.66
49178;BME280;35016;55.674;37.468;2023-02-01T15:54:45;97948.19;;;1.49;72.98
49178;BME280;35016;55.674;37.468;2023-02-01T15:57:14;97955.63;;;1.47;72.61
49178;BME280;35016;55.674;37.468;2023-02-01T15:59:45;97953.78;;;1.48;72.39
49178;BME280;35016;55.674;37.468;2023-02-01T16:02:25;97953.78;;;1.48;72.47
49178;BME280;35016;55.674;37.468;2023-02-01T16:04:57;97956.22;;;1.49;72.45
49178;BME280;35016;55.674;37.468;2023-02-01T16:07:26;97957.81;;;1.50;72.93
49178;BME280;35016;55.674;37.468;2023-02-01T16:09:55;97957.81;;;1.50;72.23